sensor_id;sensor_type;location;lat;lon;timestamp;P1;durP1;ratioP1;P2;durP2;ratioP2
6840;SDS011;3458;53.678;14.080;2023-02-15T00:01:58;18.57;;;10.00;;
6840;SDS011;3458;53.678;14.080;2023-02-15T00:04:42;18.70;;;10.83;;
6840;SDS011;3458;53.678;14.080;2023-02-15T00:07:33;22.50;;;11.60;;
6840;SDS011;3458;53.678;14.080;2023-02-15T00:10:18;19.60;;;10.30;;
6840;SDS011;3458;53.678;14.080;2023-02-15T00:13:02;21.53;;;11.80;;
6840;SDS011;3458;53.678;14.080;2023-02-15T00:15:46;20.97;;;11.60;;
6840;SDS011;3458;53.678;14.080;2023-02-15T00:18:30;25.47;;;11.50;;
6840;SDS011;3458;53.678;14.080;2023-02-15T00:21:14;24.87;;;12.40;;
6840;SDS011;3458;53.678;14.080;2023-02-15T00:23:58;19.30;;;11.30;;
6840;SDS011;3458;53.678;14.080;2023-02-15T00:26:44;19.83;;;10.77;;
6840;SDS011;3458;53.678;14.080;2023-02-15T00:29:29;17.03;;;10.40;;
6840;SDS011;3458;53.678;14.080;2023-02-15T00:32:13;26.30;;;11.83;;
6840;SDS011;3458;53.678;14.080;2023-02-15T00:34:57;22.43;;;12.53;;
6840;SDS011;3458;53.678;14.080;2023-02-15T00:37:41;22.93;;;11.37;;
6840;SDS011;3458;53.678;14.080;2023-02-15T00:40:25;22.30;;;11.17;;
6840;SDS011;3458;53.678;14.080;2023-02-15T00:43:09;21.90;;;10.47;;
6840;SDS011;3458;53.678;14.080;2023-02-15T00:45:53;19.50;;;9.70;;
6840;SDS011;3458;53.678;14.080;2023-02-15T00:48:37;39.90;;;12.00;;
6840;SDS011;3458;53.678;14.080;2023-02-15T00:51:21;24.83;;;12.50;;
6840;SDS011;3458;53.678;14.080;2023-02-15T00:54:05;28.27;;;12.97;;
6840;SDS011;3458;53.678;14.080;2023-02-15T00:56:50;28.03;;;11.53;;
6840;SDS011;3458;53.678;14.080;2023-02-15T00:59:34;22.03;;;12.03;;
6840;SDS011;3458;53.678;14.080;2023-02-15T01:02:18;21.30;;;12.33;;
6840;SDS011;3458;53.678;14.080;2023-02-15T01:05:02;27.53;;;12.10;;
6840;SDS011;3458;53.678;14.080;2023-02-15T01:07:45;19.93;;;11.47;;
6840;SDS011;3458;53.678;14.080;2023-02-15T01:10:30;21.03;;;10.60;;
6840;SDS011;3458;53.678;14.080;2023-02-15T01:13:14;26.37;;;12.17;;
6840;SDS011;3458;53.678;14.080;2023-02-15T01:15:59;21.37;;;10.93;;
6840;SDS011;3458;53.678;14.080;2023-02-15T01:18:43;21.10;;;11.80;;
6840;SDS011;3458;53.678;14.080;2023-02-15T01:21:27;21.00;;;11.17;;
6840;SDS011;3458;53.678;14.080;2023-02-15T01:24:12;28.13;;;11.80;;
6840;SDS011;3458;53.678;14.080;2023-02-15T01:26:57;20.20;;;11.73;;
6840;SDS011;3458;53.678;14.080;2023-02-15T01:29:41;25.00;;;12.40;;
6840;SDS011;3458;53.678;14.080;2023-02-15T01:32:25;26.10;;;13.10;;
6840;SDS011;3458;53.678;14.080;2023-02-15T01:35:10;25.60;;;12.87;;
6840;SDS011;3458;53.678;14.080;2023-02-15T01:37:54;26.63;;;12.93;;
6840;SDS011;3458;53.678;14.080;2023-02-15T01:40:39;26.03;;;12.70;;
6840;SDS011;3458;53.678;14.080;2023-02-15T01:43:27;22.03;;;12.70;;
6840;SDS011;3458;53.678;14.080;2023-02-15T01:46:28;19.97;;;11.80;;
6840;SDS011;3458;53.678;14.080;2023-02-15T01:49:15;29.50;;;12.67;;
6840;SDS011;3458;53.678;14.080;2023-02-15T01:52:02;19.47;;;10.23;;
6840;SDS011;3458;53.678;14.080;2023-02-15T01:54:47;19.50;;;11.80;;
6840;SDS011;3458;53.678;14.080;2023-02-15T01:57:31;16.60;;;9.80;;
6840;SDS011;3458;53.678;14.080;2023-02-15T02:00:16;20.50;;;11.27;;
6840;SDS011;3458;53.678;14.080;2023-02-15T02:03:00;24.00;;;11.37;;
6840;SDS011;3458;53.678;14.080;2023-02-15T02:05:46;26.73;;;12.60;;
6840;SDS011;3458;53.678;14.080;2023-02-15T02:08:30;21.50;;;11.63;;
6840;SDS011;3458;53.678;14.080;2023-02-15T02:11:15;24.37;;;11.37;;
6840;SDS011;3458;53.678;14.080;2023-02-15T02:14:00;18.37;;;10.87;;
6840;SDS011;3458;53.678;14.080;2023-02-15T02:20:03;24.93;;;12.67;;
6840;SDS011;3458;53.678;14.080;2023-02-15T02:23:20;26.07;;;12.57;;
6840;SDS011;3458;53.678;14.080;2023-02-15T02:26:41;34.70;;;12.97;;
6840;SDS011;3458;53.678;14.080;2023-02-15T02:29:55;24.43;;;12.57;;
6840;SDS011;3458;53.678;14.080;2023-02-15T02:33:05;19.40;;;11.10;;
6840;SDS011;3458;53.678;14.080;2023-02-15T02:36:04;27.10;;;14.17;;
6840;SDS011;3458;53.678;14.080;2023-02-15T02:39:04;26.80;;;12.97;;
6840;SDS011;3458;53.678;14.080;2023-02-15T02:42:00;19.13;;;11.53;;
6840;SDS011;3458;53.678;14.080;2023-02-15T02:44:54;27.97;;;12.60;;
6840;SDS011;3458;53.678;14.080;2023-02-15T02:47:49;23.70;;;12.77;;
6840;SDS011;3458;53.678;14.080;2023-02-15T02:50:38;25.43;;;13.03;;
6840;SDS011;3458;53.678;14.080;2023-02-15T02:53:22;25.53;;;13.10;;
6840;SDS011;3458;53.678;14.080;2023-02-15T02:56:11;24.97;;;12.50;;
6840;SDS011;3458;53.678;14.080;2023-02-15T02:59:18;23.20;;;12.90;;
6840;SDS011;3458;53.678;14.080;2023-02-15T03:05:03;28.70;;;13.87;;
6840;SDS011;3458;53.678;14.080;2023-02-15T03:07:51;33.47;;;13.47;;
6840;SDS011;3458;53.678;14.080;2023-02-15T03:10:37;26.77;;;12.00;;
6840;SDS011;3458;53.678;14.080;2023-02-15T03:13:24;23.00;;;12.47;;
6840;SDS011;3458;53.678;14.080;2023-02-15T03:16:08;24.57;;;12.90;;
6840;SDS011;3458;53.678;14.080;2023-02-15T03:19:11;26.10;;;12.87;;
6840;SDS011;3458;53.678;14.080;2023-02-15T03:22:03;30.57;;;13.57;;
6840;SDS011;3458;53.678;14.080;2023-02-15T03:24:58;29.20;;;13.23;;
6840;SDS011;3458;53.678;14.080;2023-02-15T03:27:53;28.20;;;13.40;;
6840;SDS011;3458;53.678;14.080;2023-02-15T03:30:43;24.70;;;13.00;;
6840;SDS011;3458;53.678;14.080;2023-02-15T03:33:31;26.83;;;12.83;;
6840;SDS011;3458;53.678;14.080;2023-02-15T03:36:24;31.10;;;13.63;;
6840;SDS011;3458;53.678;14.080;2023-02-15T03:39:19;26.33;;;13.73;;
6840;SDS011;3458;53.678;14.080;2023-02-15T03:42:12;33.03;;;14.90;;
6840;SDS011;3458;53.678;14.080;2023-02-15T03:45:09;31.20;;;15.37;;
6840;SDS011;3458;53.678;14.080;2023-02-15T03:47:57;32.90;;;15.47;;
6840;SDS011;3458;53.678;14.080;2023-02-15T03:50:44;28.20;;;13.30;;
6840;SDS011;3458;53.678;14.080;2023-02-15T03:53:48;30.40;;;14.87;;
6840;SDS011;3458;53.678;14.080;2023-02-15T03:56:36;37.40;;;14.80;;
6840;SDS011;3458;53.678;14.080;2023-02-15T03:59:21;29.23;;;14.70;;
6840;SDS011;3458;53.678;14.080;2023-02-15T04:02:25;30.47;;;14.53;;
6840;SDS011;3458;53.678;14.080;2023-02-15T04:05:16;38.37;;;16.07;;
6840;SDS011;3458;53.678;14.080;2023-02-15T04:08:00;34.17;;;15.73;;
6840;SDS011;3458;53.678;14.080;2023-02-15T04:10:44;30.97;;;16.23;;
6840;SDS011;3458;53.678;14.080;2023-02-15T04:13:38;32.40;;;15.13;;
6840;SDS011;3458;53.678;14.080;2023-02-15T04:16:23;31.60;;;15.03;;
6840;SDS011;3458;53.678;14.080;2023-02-15T04:19:07;32.03;;;14.70;;
6840;SDS011;3458;53.678;14.080;2023-02-15T04:22:10;36.47;;;16.80;;
6840;SDS011;3458;53.678;14.080;2023-02-15T04:25:13;31.90;;;15.60;;
6840;SDS011;3458;53.678;14.080;2023-02-15T04:27:57;38.30;;;14.87;;
6840;SDS011;3458;53.678;14.080;2023-02-15T04:30:41;34.07;;;16.60;;
6840;SDS011;3458;53.678;14.080;2023-02-15T04:33:25;34.93;;;15.40;;
6840;SDS011;3458;53.678;14.080;2023-02-15T04:36:09;37.70;;;16.00;;
6840;SDS011;3458;53.678;14.080;2023-02-15T04:38:53;31.40;;;15.20;;
6840;SDS011;3458;53.678;14.080;2023-02-15T04:41:37;31.07;;;16.00;;
6840;SDS011;3458;53.678;14.080;2023-02-15T04:44:21;41.23;;;19.13;;
6840;SDS011;3458;53.678;14.080;2023-02-15T04:47:05;35.30;;;17.20;;
6840;SDS011;3458;53.678;14.080;2023-02-15T04:49:49;38.10;;;17.23;;
6840;SDS011;3458;53.678;14.080;2023-02-15T04:52:33;33.47;;;16.57;;
6840;SDS011;3458;53.678;14.080;2023-02-15T04:55:17;33.10;;;15.63;;
6840;SDS011;3458;53.678;14.080;2023-02-15T04:58:01;41.67;;;18.17;;
6840;SDS011;3458;53.678;14.080;2023-02-15T05:00:45;41.03;;;17.90;;
6840;SDS011;3458;53.678;14.080;2023-02-15T05:03:29;39.43;;;17.47;;
6840;SDS011;3458;53.678;14.080;2023-02-15T05:06:13;39.97;;;18.00;;
6840;SDS011;3458;53.678;14.080;2023-02-15T05:08:57;43.60;;;20.13;;
6840;SDS011;3458;53.678;14.080;2023-02-15T05:11:42;45.67;;;20.33;;
6840;SDS011;3458;53.678;14.080;2023-02-15T05:14:26;45.73;;;20.83;;
6840;SDS011;3458;53.678;14.080;2023-02-15T05:17:11;40.13;;;18.73;;
6840;SDS011;3458;53.678;14.080;2023-02-15T05:19:55;46.70;;;20.87;;
6840;SDS011;3458;53.678;14.080;2023-02-15T05:22:38;43.07;;;19.87;;
6840;SDS011;3458;53.678;14.080;2023-02-15T05:25:24;48.63;;;19.30;;
6840;SDS011;3458;53.678;14.080;2023-02-15T05:28:27;41.57;;;18.70;;
6840;SDS011;3458;53.678;14.080;2023-02-15T05:31:15;45.97;;;20.27;;
6840;SDS011;3458;53.678;14.080;2023-02-15T05:34:01;43.67;;;19.87;;
6840;SDS011;3458;53.678;14.080;2023-02-15T05:36:45;43.77;;;20.43;;
6840;SDS011;3458;53.678;14.080;2023-02-15T05:39:29;45.20;;;20.60;;
6840;SDS011;3458;53.678;14.080;2023-02-15T05:42:13;40.03;;;18.70;;
6840;SDS011;3458;53.678;14.080;2023-02-15T05:44:57;49.87;;;22.27;;
6840;SDS011;3458;53.678;14.080;2023-02-15T05:47:41;48.77;;;21.13;;
6840;SDS011;3458;53.678;14.080;2023-02-15T05:50:26;39.43;;;18.87;;
6840;SDS011;3458;53.678;14.080;2023-02-15T05:53:10;52.50;;;21.63;;
6840;SDS011;3458;53.678;14.080;2023-02-15T05:55:55;44.40;;;20.13;;
6840;SDS011;3458;53.678;14.080;2023-02-15T05:58:42;41.37;;;20.40;;
6840;SDS011;3458;53.678;14.080;2023-02-15T06:01:26;37.23;;;18.63;;
6840;SDS011;3458;53.678;14.080;2023-02-15T06:04:10;40.47;;;19.37;;
6840;SDS011;3458;53.678;14.080;2023-02-15T06:06:54;49.83;;;20.50;;
6840;SDS011;3458;53.678;14.080;2023-02-15T06:09:38;49.63;;;22.43;;
6840;SDS011;3458;53.678;14.080;2023-02-15T06:12:23;47.67;;;21.93;;
6840;SDS011;3458;53.678;14.080;2023-02-15T06:15:07;53.93;;;24.73;;
6840;SDS011;3458;53.678;14.080;2023-02-15T06:17:52;47.47;;;24.30;;
6840;SDS011;3458;53.678;14.080;2023-02-15T06:20:36;56.93;;;24.47;;
6840;SDS011;3458;53.678;14.080;2023-02-15T06:23:20;53.60;;;22.13;;
6840;SDS011;3458;53.678;14.080;2023-02-15T06:26:04;46.73;;;21.07;;
6840;SDS011;3458;53.678;14.080;2023-02-15T06:28:48;51.80;;;24.53;;
6840;SDS011;3458;53.678;14.080;2023-02-15T06:31:32;49.73;;;21.70;;
6840;SDS011;3458;53.678;14.080;2023-02-15T06:34:16;68.60;;;23.40;;
6840;SDS011;3458;53.678;14.080;2023-02-15T06:37:00;55.37;;;22.90;;
6840;SDS011;3458;53.678;14.080;2023-02-15T06:39:44;47.80;;;22.43;;
6840;SDS011;3458;53.678;14.080;2023-02-15T06:42:28;52.07;;;22.20;;
6840;SDS011;3458;53.678;14.080;2023-02-15T06:45:13;53.93;;;21.30;;
6840;SDS011;3458;53.678;14.080;2023-02-15T06:47:57;48.00;;;24.20;;
6840;SDS011;3458;53.678;14.080;2023-02-15T06:50:41;57.00;;;23.90;;
6840;SDS011;3458;53.678;14.080;2023-02-15T06:53:25;46.30;;;21.13;;
6840;SDS011;3458;53.678;14.080;2023-02-15T06:56:10;67.17;;;25.30;;
6840;SDS011;3458;53.678;14.080;2023-02-15T06:58:54;55.17;;;24.27;;
6840;SDS011;3458;53.678;14.080;2023-02-15T07:01:38;63.43;;;24.17;;
6840;SDS011;3458;53.678;14.080;2023-02-15T07:04:22;58.70;;;23.73;;
6840;SDS011;3458;53.678;14.080;2023-02-15T07:07:10;53.07;;;23.00;;
6840;SDS011;3458;53.678;14.080;2023-02-15T07:09:55;57.20;;;23.83;;
6840;SDS011;3458;53.678;14.080;2023-02-15T07:12:39;51.50;;;23.27;;
6840;SDS011;3458;53.678;14.080;2023-02-15T07:15:26;65.87;;;24.50;;
6840;SDS011;3458;53.678;14.080;2023-02-15T07:18:10;52.93;;;22.93;;
6840;SDS011;3458;53.678;14.080;2023-02-15T07:20:53;52.80;;;21.33;;
6840;SDS011;3458;53.678;14.080;2023-02-15T07:23:38;45.00;;;21.77;;
6840;SDS011;3458;53.678;14.080;2023-02-15T07:26:23;61.67;;;23.43;;
6840;SDS011;3458;53.678;14.080;2023-02-15T07:29:07;55.27;;;23.17;;
6840;SDS011;3458;53.678;14.080;2023-02-15T07:31:51;52.00;;;22.93;;
6840;SDS011;3458;53.678;14.080;2023-02-15T07:34:35;51.27;;;23.70;;
6840;SDS011;3458;53.678;14.080;2023-02-15T07:37:19;51.43;;;23.60;;
6840;SDS011;3458;53.678;14.080;2023-02-15T07:40:03;52.30;;;23.23;;
6840;SDS011;3458;53.678;14.080;2023-02-15T07:42:48;55.87;;;22.77;;
6840;SDS011;3458;53.678;14.080;2023-02-15T07:45:32;55.43;;;22.33;;
6840;SDS011;3458;53.678;14.080;2023-02-15T07:48:16;51.93;;;22.90;;
6840;SDS011;3458;53.678;14.080;2023-02-15T07:51:00;52.33;;;21.90;;
6840;SDS011;3458;53.678;14.080;2023-02-15T07:53:45;46.70;;;20.80;;
6840;SDS011;3458;53.678;14.080;2023-02-15T07:56:30;57.53;;;24.00;;
6840;SDS011;3458;53.678;14.080;2023-02-15T07:59:16;55.50;;;22.30;;
6840;SDS011;3458;53.678;14.080;2023-02-15T08:02:00;48.37;;;22.40;;
6840;SDS011;3458;53.678;14.080;2023-02-15T08:04:44;64.20;;;25.40;;
6840;SDS011;3458;53.678;14.080;2023-02-15T08:07:28;60.20;;;25.43;;
6840;SDS011;3458;53.678;14.080;2023-02-15T08:10:12;51.73;;;24.13;;
6840;SDS011;3458;53.678;14.080;2023-02-15T08:13:16;54.10;;;24.43;;
6840;SDS011;3458;53.678;14.080;2023-02-15T08:16:00;54.90;;;22.67;;
6840;SDS011;3458;53.678;14.080;2023-02-15T08:18:44;45.70;;;22.37;;
6840;SDS011;3458;53.678;14.080;2023-02-15T08:21:28;47.50;;;21.03;;
6840;SDS011;3458;53.678;14.080;2023-02-15T08:24:13;53.27;;;25.10;;
6840;SDS011;3458;53.678;14.080;2023-02-15T08:26:58;46.87;;;22.23;;
6840;SDS011;3458;53.678;14.080;2023-02-15T08:29:43;44.80;;;24.17;;
6840;SDS011;3458;53.678;14.080;2023-02-15T08:32:27;56.93;;;24.87;;
6840;SDS011;3458;53.678;14.080;2023-02-15T08:35:11;49.70;;;23.37;;
6840;SDS011;3458;53.678;14.080;2023-02-15T08:37:55;43.70;;;21.10;;
6840;SDS011;3458;53.678;14.080;2023-02-15T08:40:39;52.77;;;22.77;;
6840;SDS011;3458;53.678;14.080;2023-02-15T08:43:23;48.20;;;21.70;;
6840;SDS011;3458;53.678;14.080;2023-02-15T08:46:08;52.07;;;23.37;;
6840;SDS011;3458;53.678;14.080;2023-02-15T08:48:53;49.50;;;22.87;;
6840;SDS011;3458;53.678;14.080;2023-02-15T08:51:38;54.33;;;23.73;;
6840;SDS011;3458;53.678;14.080;2023-02-15T08:54:22;59.40;;;25.87;;
6840;SDS011;3458;53.678;14.080;2023-02-15T08:57:06;56.17;;;26.20;;
6840;SDS011;3458;53.678;14.080;2023-02-15T08:59:50;50.77;;;24.53;;
6840;SDS011;3458;53.678;14.080;2023-02-15T09:02:34;48.60;;;23.73;;
6840;SDS011;3458;53.678;14.080;2023-02-15T09:05:19;52.40;;;24.50;;
6840;SDS011;3458;53.678;14.080;2023-02-15T09:08:03;52.53;;;23.40;;
6840;SDS011;3458;53.678;14.080;2023-02-15T09:10:47;49.90;;;23.00;;
6840;SDS011;3458;53.678;14.080;2023-02-15T09:13:32;56.97;;;26.50;;
6840;SDS011;3458;53.678;14.080;2023-02-15T09:16:16;52.80;;;24.30;;
6840;SDS011;3458;53.678;14.080;2023-02-15T09:19:00;48.10;;;21.90;;
6840;SDS011;3458;53.678;14.080;2023-02-15T09:21:44;55.93;;;24.70;;
6840;SDS011;3458;53.678;14.080;2023-02-15T09:24:31;51.33;;;24.23;;
6840;SDS011;3458;53.678;14.080;2023-02-15T09:27:16;49.87;;;24.50;;
6840;SDS011;3458;53.678;14.080;2023-02-15T09:29:59;49.27;;;23.80;;
6840;SDS011;3458;53.678;14.080;2023-02-15T09:32:43;51.20;;;23.30;;
6840;SDS011;3458;53.678;14.080;2023-02-15T09:35:29;42.80;;;21.50;;
6840;SDS011;3458;53.678;14.080;2023-02-15T09:38:13;50.80;;;24.43;;
6840;SDS011;3458;53.678;14.080;2023-02-15T09:44:28;49.83;;;24.57;;
6840;SDS011;3458;53.678;14.080;2023-02-15T09:50:06;52.03;;;24.63;;
6840;SDS011;3458;53.678;14.080;2023-02-15T09:56:19;58.47;;;24.70;;
6840;SDS011;3458;53.678;14.080;2023-02-15T09:59:17;69.97;;;27.10;;
6840;SDS011;3458;53.678;14.080;2023-02-15T10:02:41;52.93;;;25.53;;
6840;SDS011;3458;53.678;14.080;2023-02-15T10:12:11;58.60;;;26.63;;
6840;SDS011;3458;53.678;14.080;2023-02-15T10:21:42;54.10;;;24.37;;
6840;SDS011;3458;53.678;14.080;2023-02-15T10:25:00;53.60;;;24.77;;
6840;SDS011;3458;53.678;14.080;2023-02-15T10:27:57;47.97;;;24.77;;
6840;SDS011;3458;53.678;14.080;2023-02-15T10:30:52;52.63;;;24.60;;
6840;SDS011;3458;53.678;14.080;2023-02-15T10:33:42;46.47;;;23.77;;
6840;SDS011;3458;53.678;14.080;2023-02-15T10:43:02;45.07;;;23.20;;
6840;SDS011;3458;53.678;14.080;2023-02-15T10:49:20;49.07;;;22.97;;
6840;SDS011;3458;53.678;14.080;2023-02-15T10:52:18;51.07;;;25.53;;
6840;SDS011;3458;53.678;14.080;2023-02-15T10:55:08;53.90;;;25.60;;
6840;SDS011;3458;53.678;14.080;2023-02-15T10:58:19;59.30;;;25.33;;
6840;SDS011;3458;53.678;14.080;2023-02-15T11:01:41;47.50;;;23.47;;
6840;SDS011;3458;53.678;14.080;2023-02-15T11:04:34;48.13;;;24.77;;
6840;SDS011;3458;53.678;14.080;2023-02-15T11:07:40;53.17;;;25.83;;
6840;SDS011;3458;53.678;14.080;2023-02-15T11:13:19;49.97;;;25.27;;
6840;SDS011;3458;53.678;14.080;2023-02-15T11:16:08;55.83;;;25.97;;
6840;SDS011;3458;53.678;14.080;2023-02-15T11:19:21;46.97;;;24.77;;
6840;SDS011;3458;53.678;14.080;2023-02-15T11:22:17;50.43;;;25.10;;
6840;SDS011;3458;53.678;14.080;2023-02-15T11:25:02;50.80;;;24.50;;
6840;SDS011;3458;53.678;14.080;2023-02-15T11:27:58;52.17;;;25.83;;
6840;SDS011;3458;53.678;14.080;2023-02-15T11:30:48;52.63;;;26.67;;
6840;SDS011;3458;53.678;14.080;2023-02-15T11:33:38;57.40;;;27.60;;
6840;SDS011;3458;53.678;14.080;2023-02-15T11:36:28;55.07;;;26.67;;
6840;SDS011;3458;53.678;14.080;2023-02-15T11:39:17;55.40;;;27.70;;
6840;SDS011;3458;53.678;14.080;2023-02-15T11:42:16;53.63;;;28.87;;
6840;SDS011;3458;53.678;14.080;2023-02-15T11:45:04;53.57;;;26.50;;
6840;SDS011;3458;53.678;14.080;2023-02-15T11:48:08;50.80;;;27.20;;
6840;SDS011;3458;53.678;14.080;2023-02-15T11:50:54;50.47;;;25.50;;
6840;SDS011;3458;53.678;14.080;2023-02-15T11:53:39;50.70;;;25.80;;
6840;SDS011;3458;53.678;14.080;2023-02-15T11:56:24;56.07;;;28.87;;
6840;SDS011;3458;53.678;14.080;2023-02-15T11:59:10;54.33;;;27.27;;
6840;SDS011;3458;53.678;14.080;2023-02-15T12:02:14;50.00;;;26.53;;
6840;SDS011;3458;53.678;14.080;2023-02-15T12:05:01;49.83;;;26.30;;
6840;SDS011;3458;53.678;14.080;2023-02-15T12:07:52;51.20;;;26.23;;
6840;SDS011;3458;53.678;14.080;2023-02-15T12:10:51;50.70;;;26.93;;
6840;SDS011;3458;53.678;14.080;2023-02-15T12:13:59;55.13;;;25.73;;
6840;SDS011;3458;53.678;14.080;2023-02-15T12:16:46;49.50;;;25.57;;
6840;SDS011;3458;53.678;14.080;2023-02-15T12:19:37;53.33;;;26.63;;
6840;SDS011;3458;53.678;14.080;2023-02-15T12:22:25;54.03;;;25.03;;
6840;SDS011;3458;53.678;14.080;2023-02-15T12:25:33;51.57;;;25.63;;
6840;SDS011;3458;53.678;14.080;2023-02-15T12:28:23;66.57;;;30.27;;
6840;SDS011;3458;53.678;14.080;2023-02-15T12:31:19;49.27;;;25.47;;
6840;SDS011;3458;53.678;14.080;2023-02-15T12:37:20;56.43;;;28.60;;
6840;SDS011;3458;53.678;14.080;2023-02-15T12:40:20;56.87;;;28.00;;
6840;SDS011;3458;53.678;14.080;2023-02-15T12:43:24;56.80;;;27.80;;
6840;SDS011;3458;53.678;14.080;2023-02-15T12:46:14;64.00;;;29.00;;
6840;SDS011;3458;53.678;14.080;2023-02-15T12:49:07;61.47;;;29.30;;
6840;SDS011;3458;53.678;14.080;2023-02-15T12:52:01;66.97;;;31.30;;
6840;SDS011;3458;53.678;14.080;2023-02-15T12:54:50;69.47;;;30.77;;
6840;SDS011;3458;53.678;14.080;2023-02-15T12:57:35;65.23;;;32.60;;
6840;SDS011;3458;53.678;14.080;2023-02-15T13:03:04;56.87;;;27.73;;
6840;SDS011;3458;53.678;14.080;2023-02-15T13:05:50;66.10;;;31.53;;
6840;SDS011;3458;53.678;14.080;2023-02-15T13:08:39;66.87;;;31.80;;
6840;SDS011;3458;53.678;14.080;2023-02-15T13:11:30;69.47;;;32.67;;
6840;SDS011;3458;53.678;14.080;2023-02-15T13:14:23;69.70;;;30.73;;
6840;SDS011;3458;53.678;14.080;2023-02-15T13:17:14;69.70;;;33.40;;
6840;SDS011;3458;53.678;14.080;2023-02-15T13:20:14;62.60;;;30.80;;
6840;SDS011;3458;53.678;14.080;2023-02-15T13:23:03;74.83;;;33.50;;
6840;SDS011;3458;53.678;14.080;2023-02-15T13:25:58;77.07;;;33.47;;
6840;SDS011;3458;53.678;14.080;2023-02-15T13:28:46;73.47;;;33.50;;
6840;SDS011;3458;53.678;14.080;2023-02-15T13:31:33;70.60;;;34.00;;
6840;SDS011;3458;53.678;14.080;2023-02-15T13:37:19;73.97;;;35.73;;
6840;SDS011;3458;53.678;14.080;2023-02-15T13:40:30;74.60;;;35.47;;
6840;SDS011;3458;53.678;14.080;2023-02-15T13:43:35;81.37;;;35.17;;
6840;SDS011;3458;53.678;14.080;2023-02-15T13:46:38;82.60;;;37.10;;
6840;SDS011;3458;53.678;14.080;2023-02-15T13:49:56;79.03;;;34.57;;
6840;SDS011;3458;53.678;14.080;2023-02-15T13:53:00;73.30;;;34.00;;
6840;SDS011;3458;53.678;14.080;2023-02-15T13:55:53;75.03;;;33.47;;
6840;SDS011;3458;53.678;14.080;2023-02-15T14:02:20;76.90;;;35.17;;
6840;SDS011;3458;53.678;14.080;2023-02-15T14:05:32;80.87;;;34.83;;
6840;SDS011;3458;53.678;14.080;2023-02-15T14:08:56;82.13;;;35.83;;
6840;SDS011;3458;53.678;14.080;2023-02-15T14:12:13;80.77;;;35.87;;
6840;SDS011;3458;53.678;14.080;2023-02-15T14:15:22;73.90;;;34.93;;
6840;SDS011;3458;53.678;14.080;2023-02-15T14:18:35;74.70;;;33.67;;
6840;SDS011;3458;53.678;14.080;2023-02-15T14:21:27;77.43;;;34.37;;
6840;SDS011;3458;53.678;14.080;2023-02-15T14:27:25;76.93;;;34.93;;
6840;SDS011;3458;53.678;14.080;2023-02-15T14:33:08;82.93;;;34.80;;
6840;SDS011;3458;53.678;14.080;2023-02-15T14:35:59;85.80;;;36.33;;
6840;SDS011;3458;53.678;14.080;2023-02-15T14:45:40;72.10;;;34.97;;
6840;SDS011;3458;53.678;14.080;2023-02-15T14:48:42;73.10;;;32.50;;
6840;SDS011;3458;53.678;14.080;2023-02-15T14:59:58;83.57;;;33.57;;
6840;SDS011;3458;53.678;14.080;2023-02-15T15:02:50;87.20;;;35.87;;
6840;SDS011;3458;53.678;14.080;2023-02-15T15:05:35;84.43;;;36.03;;
6840;SDS011;3458;53.678;14.080;2023-02-15T15:08:38;77.37;;;32.07;;
6840;SDS011;3458;53.678;14.080;2023-02-15T15:11:37;69.50;;;28.80;;
6840;SDS011;3458;53.678;14.080;2023-02-15T15:26:26;76.43;;;32.33;;
6840;SDS011;3458;53.678;14.080;2023-02-15T15:29:11;65.80;;;28.07;;
6840;SDS011;3458;53.678;14.080;2023-02-15T15:31:55;78.73;;;31.70;;
6840;SDS011;3458;53.678;14.080;2023-02-15T15:35:03;74.07;;;28.93;;
6840;SDS011;3458;53.678;14.080;2023-02-15T15:47:54;77.30;;;27.13;;
6840;SDS011;3458;53.678;14.080;2023-02-15T15:50:52;68.27;;;27.07;;
6840;SDS011;3458;53.678;14.080;2023-02-15T15:53:41;77.87;;;30.50;;
6840;SDS011;3458;53.678;14.080;2023-02-15T15:56:30;62.47;;;25.30;;
6840;SDS011;3458;53.678;14.080;2023-02-15T15:59:19;66.73;;;27.40;;
6840;SDS011;3458;53.678;14.080;2023-02-15T16:02:12;69.50;;;27.57;;
6840;SDS011;3458;53.678;14.080;2023-02-15T16:05:06;61.73;;;25.00;;
6840;SDS011;3458;53.678;14.080;2023-02-15T16:07:52;64.70;;;25.30;;
6840;SDS011;3458;53.678;14.080;2023-02-15T16:10:36;66.53;;;26.60;;
6840;SDS011;3458;53.678;14.080;2023-02-15T16:13:21;67.57;;;27.90;;
6840;SDS011;3458;53.678;14.080;2023-02-15T16:16:05;61.90;;;26.00;;
6840;SDS011;3458;53.678;14.080;2023-02-15T16:18:50;81.93;;;28.90;;
6840;SDS011;3458;53.678;14.080;2023-02-15T16:21:35;67.03;;;25.17;;
6840;SDS011;3458;53.678;14.080;2023-02-15T16:24:22;60.00;;;24.20;;
6840;SDS011;3458;53.678;14.080;2023-02-15T16:27:38;51.87;;;22.47;;
6840;SDS011;3458;53.678;14.080;2023-02-15T16:30:30;59.43;;;23.90;;
6840;SDS011;3458;53.678;14.080;2023-02-15T16:33:19;60.10;;;22.73;;
6840;SDS011;3458;53.678;14.080;2023-02-15T16:36:04;54.13;;;22.97;;
6840;SDS011;3458;53.678;14.080;2023-02-15T16:41:34;58.17;;;24.70;;
6840;SDS011;3458;53.678;14.080;2023-02-15T16:44:19;60.07;;;23.57;;
6840;SDS011;3458;53.678;14.080;2023-02-15T16:47:04;70.53;;;24.60;;
6840;SDS011;3458;53.678;14.080;2023-02-15T16:49:51;58.57;;;25.13;;
6840;SDS011;3458;53.678;14.080;2023-02-15T16:52:38;58.30;;;23.03;;
6840;SDS011;3458;53.678;14.080;2023-02-15T16:55:28;62.80;;;24.67;;
6840;SDS011;3458;53.678;14.080;2023-02-15T16:58:19;63.27;;;24.70;;
6840;SDS011;3458;53.678;14.080;2023-02-15T17:01:20;56.50;;;20.97;;
6840;SDS011;3458;53.678;14.080;2023-02-15T17:04:12;66.10;;;24.07;;
6840;SDS011;3458;53.678;14.080;2023-02-15T17:07:19;58.77;;;22.20;;
6840;SDS011;3458;53.678;14.080;2023-02-15T17:10:16;60.90;;;23.17;;
6840;SDS011;3458;53.678;14.080;2023-02-15T17:18:44;64.47;;;25.53;;
6840;SDS011;3458;53.678;14.080;2023-02-15T17:21:33;59.70;;;24.17;;
6840;SDS011;3458;53.678;14.080;2023-02-15T17:24:28;63.17;;;23.97;;
6840;SDS011;3458;53.678;14.080;2023-02-15T17:27:22;76.83;;;24.80;;
6840;SDS011;3458;53.678;14.080;2023-02-15T17:30:15;72.37;;;26.93;;
6840;SDS011;3458;53.678;14.080;2023-02-15T17:33:18;64.50;;;24.50;;
6840;SDS011;3458;53.678;14.080;2023-02-15T17:36:14;81.70;;;32.07;;
6840;SDS011;3458;53.678;14.080;2023-02-15T17:39:12;70.50;;;27.20;;
6840;SDS011;3458;53.678;14.080;2023-02-15T17:42:04;56.93;;;23.83;;
6840;SDS011;3458;53.678;14.080;2023-02-15T17:44:48;56.83;;;22.87;;
6840;SDS011;3458;53.678;14.080;2023-02-15T17:47:33;61.77;;;21.10;;
6840;SDS011;3458;53.678;14.080;2023-02-15T17:50:18;59.30;;;23.57;;
6840;SDS011;3458;53.678;14.080;2023-02-15T17:53:08;67.23;;;22.73;;
6840;SDS011;3458;53.678;14.080;2023-02-15T17:55:53;59.30;;;23.57;;
6840;SDS011;3458;53.678;14.080;2023-02-15T17:58:38;61.20;;;25.30;;
6840;SDS011;3458;53.678;14.080;2023-02-15T18:01:22;58.40;;;24.43;;
6840;SDS011;3458;53.678;14.080;2023-02-15T18:04:25;62.50;;;24.60;;
6840;SDS011;3458;53.678;14.080;2023-02-15T18:07:28;56.93;;;22.80;;
6840;SDS011;3458;53.678;14.080;2023-02-15T18:10:31;52.03;;;20.40;;
6840;SDS011;3458;53.678;14.080;2023-02-15T18:13:34;60.67;;;23.80;;
6840;SDS011;3458;53.678;14.080;2023-02-15T18:16:22;57.30;;;24.43;;
6840;SDS011;3458;53.678;14.080;2023-02-15T18:19:11;67.07;;;25.03;;
6840;SDS011;3458;53.678;14.080;2023-02-15T18:21:58;67.70;;;23.10;;
6840;SDS011;3458;53.678;14.080;2023-02-15T18:24:42;52.37;;;22.67;;
6840;SDS011;3458;53.678;14.080;2023-02-15T18:27:26;54.10;;;22.80;;
6840;SDS011;3458;53.678;14.080;2023-02-15T18:30:14;51.60;;;21.23;;
6840;SDS011;3458;53.678;14.080;2023-02-15T18:33:00;50.07;;;22.00;;
6840;SDS011;3458;53.678;14.080;2023-02-15T18:35:45;54.70;;;21.67;;